Terminal Aerodrome Forecast
Issued by NWS Charleston, WV

Current Version | Previous Version | Text Only | Print | Product List | Glossary Off
Versions: 1 2 3 4 5 6 7 8 9 10 11 12 13 14 15 16 17 18 19 20 21 22 23 24 25

000
FTUS41 KRLX 220900 AAA
TAFEKN
TAF AMD
KEKN 220930Z 2210/2306 00000KT P6SM BKN250
     FM221500 25008G16KT P6SM OVC070
     FM221700 26008G17KT 5SM SHRA OVC040
     FM222000 27010G19KT P6SM BKN035
     FM230400 27010G19KT P6SM BKN030=

USA.gov is the U.S. government's official web portal to all federal, state and local government web resources and services.